createdAt,value
2022-10-30T00:02:22.348Z,12.91
2022-10-30T00:04:48.842Z,12.80
2022-10-30T00:07:15.252Z,12.78
2022-10-30T00:09:41.666Z,12.64
2022-10-30T00:12:08.214Z,12.68
2022-10-30T00:14:34.669Z,12.54
2022-10-30T00:17:01.089Z,12.54
2022-10-30T00:19:27.515Z,12.63
2022-10-30T00:24:21.014Z,12.53
2022-10-30T00:26:48.082Z,12.61
2022-10-30T00:29:14.576Z,12.64
2022-10-30T00:31:41.122Z,12.58
2022-10-30T00:34:07.576Z,12.52
2022-10-30T00:36:34.019Z,12.54
2022-10-30T00:39:00.511Z,12.63
2022-10-30T00:41:26.999Z,12.63
2022-10-30T00:43:53.407Z,12.55
2022-10-30T00:46:40.905Z,12.49
2022-10-30T00:49:14.054Z,12.41
2022-10-30T00:51:46.376Z,12.38
2022-10-30T00:54:15.637Z,12.47
2022-10-30T00:56:43.188Z,12.60
2022-10-30T00:59:13.523Z,12.56
2022-10-30T01:01:43.620Z,12.42
2022-10-30T01:04:12.362Z,12.29
2022-10-30T01:06:41.163Z,12.25
2022-10-30T01:09:07.898Z,12.20
2022-10-30T01:11:34.493Z,12.28
2022-10-30T01:14:05.721Z,12.44
2022-10-30T01:16:50.582Z,12.51
2022-10-30T01:19:26.441Z,12.40
2022-10-30T01:22:20.564Z,12.35
2022-10-30T01:24:54.104Z,12.31
2022-10-30T01:27:39.429Z,12.26
2022-10-30T01:30:15.188Z,12.19
2022-10-30T01:33:00.030Z,12.17
2022-10-30T01:36:08.373Z,12.18
2022-10-30T01:38:59.811Z,12.23
2022-10-30T01:41:26.172Z,12.32
2022-10-30T01:43:57.500Z,12.33
2022-10-30T01:46:31.657Z,12.30
2022-10-30T01:49:07.567Z,12.32
2022-10-30T01:51:49.404Z,12.39
2022-10-30T01:54:53.380Z,12.42
2022-10-30T01:57:28.971Z,12.47
2022-10-30T02:00:02.529Z,12.39
2022-10-30T02:02:30.520Z,12.26
2022-10-30T02:04:57.096Z,12.18
2022-10-30T02:07:23.792Z,12.09
2022-10-30T02:09:54.663Z,11.95
2022-10-30T02:12:23.065Z,11.78
2022-10-30T02:14:57.836Z,11.63
2022-10-30T02:17:25.014Z,11.52
2022-10-30T02:19:51.415Z,11.52
2022-10-30T02:22:18.183Z,11.56
2022-10-30T02:24:44.764Z,11.61
2022-10-30T02:27:11.657Z,11.63
2022-10-30T02:29:38.073Z,11.66
2022-10-30T02:32:04.679Z,11.61
2022-10-30T02:34:31.099Z,11.49
2022-10-30T02:36:57.498Z,11.46
2022-10-30T02:39:23.983Z,11.51
2022-10-30T02:41:50.513Z,11.66
2022-10-30T02:44:17.019Z,11.87
2022-10-30T02:46:43.479Z,11.96
2022-10-30T02:49:09.953Z,12.03
2022-10-30T02:51:36.449Z,12.06
2022-10-30T02:54:02.947Z,12.10
2022-10-30T02:56:29.445Z,12.10
2022-10-30T02:58:56.371Z,12.09
2022-10-30T03:01:23.104Z,12.09
2022-10-30T03:03:49.600Z,12.20
2022-10-30T03:06:17.306Z,12.24
2022-10-30T03:08:44.663Z,12.24
2022-10-30T03:11:16.473Z,12.25
2022-10-30T03:13:45.097Z,12.29
2022-10-30T03:16:14.687Z,12.23
2022-10-30T03:18:41.779Z,12.12
2022-10-30T03:21:10.188Z,12.03
2022-10-30T03:23:36.766Z,11.97
2022-10-30T03:26:04.079Z,11.93
2022-10-30T03:28:32.061Z,11.92
2022-10-30T03:31:00.681Z,11.87
2022-10-30T03:33:27.203Z,11.83
2022-10-30T03:35:53.630Z,11.79
2022-10-30T03:38:20.395Z,11.72
2022-10-30T03:40:46.883Z,11.64
2022-10-30T03:43:13.410Z,11.57
2022-10-30T03:45:40.011Z,11.58
2022-10-30T03:48:06.943Z,11.56
2022-10-30T03:50:33.450Z,11.57
2022-10-30T03:52:59.898Z,11.52
2022-10-30T03:55:26.357Z,11.47
2022-10-30T03:57:52.791Z,11.44
2022-10-30T04:00:19.620Z,11.40
2022-10-30T04:02:50.270Z,11.29
2022-10-30T04:05:19.147Z,11.40
2022-10-30T04:07:45.684Z,11.47
2022-10-30T04:10:14.247Z,11.49
2022-10-30T04:12:41.454Z,11.52
2022-10-30T04:15:09.203Z,11.54
2022-10-30T04:17:35.703Z,11.55
2022-10-30T04:20:02.168Z,11.60
2022-10-30T04:22:28.569Z,11.64
2022-10-30T04:24:55.032Z,11.63
2022-10-30T04:27:21.533Z,11.66
2022-10-30T04:29:47.999Z,11.67
2022-10-30T04:32:14.546Z,11.68
2022-10-30T04:34:41.114Z,11.71
2022-10-30T04:37:08.316Z,11.65
2022-10-30T04:39:34.760Z,11.56
2022-10-30T04:42:01.167Z,11.51
2022-10-30T04:44:27.628Z,11.49
2022-10-30T04:46:54.080Z,11.48
2022-10-30T04:49:20.480Z,11.46
2022-10-30T04:51:47.378Z,11.54
2022-10-30T04:54:13.852Z,11.69
2022-10-30T04:56:40.291Z,11.71
2022-10-30T04:59:06.779Z,11.70
2022-10-30T05:01:33.286Z,11.81
2022-10-30T05:03:59.804Z,11.90
2022-10-30T05:06:27.759Z,11.91
2022-10-30T05:08:55.726Z,11.81
2022-10-30T05:11:22.529Z,11.67
2022-10-30T05:13:48.971Z,11.64
2022-10-30T05:16:15.470Z,11.66
2022-10-30T05:18:42.015Z,11.69
2022-10-30T05:21:09.531Z,11.64
2022-10-30T05:23:36.004Z,11.62
2022-10-30T05:26:02.779Z,11.67
2022-10-30T05:28:29.287Z,11.59
2022-10-30T05:30:56.715Z,11.45
2022-10-30T05:33:23.706Z,11.42
2022-10-30T05:35:50.258Z,11.47
2022-10-30T05:38:16.775Z,11.50
2022-10-30T05:40:46.579Z,11.60
2022-10-30T05:43:13.039Z,11.66
2022-10-30T05:45:39.411Z,11.67
2022-10-30T05:48:07.304Z,11.75
2022-10-30T05:50:34.269Z,11.73
2022-10-30T05:53:02.797Z,11.71
2022-10-30T05:55:29.583Z,11.78
2022-10-30T05:58:01.030Z,11.84
2022-10-30T06:00:29.508Z,11.79
2022-10-30T06:03:04.209Z,11.74
2022-10-30T06:05:32.945Z,11.73
2022-10-30T06:07:59.605Z,11.73
2022-10-30T06:10:26.934Z,11.77
2022-10-30T06:12:58.469Z,11.90
2022-10-30T06:15:26.044Z,11.95
2022-10-30T06:17:52.844Z,11.96
2022-10-30T06:20:21.811Z,11.91
2022-10-30T06:22:59.892Z,11.79
2022-10-30T06:25:27.738Z,11.76
2022-10-30T06:27:54.226Z,11.85
2022-10-30T06:30:21.385Z,11.84
2022-10-30T06:32:48.262Z,11.75
2022-10-30T06:35:14.872Z,11.77
2022-10-30T06:37:48.657Z,11.81
2022-10-30T06:40:16.431Z,11.81
2022-10-30T06:42:47.039Z,11.83
2022-10-30T06:45:14.938Z,11.84
2022-10-30T06:47:41.956Z,11.81
2022-10-30T06:50:11.342Z,11.75
2022-10-30T06:52:37.810Z,11.70
2022-10-30T06:55:04.943Z,11.70
2022-10-30T06:57:31.804Z,11.70
2022-10-30T06:59:58.245Z,11.76
2022-10-30T07:02:24.935Z,11.87
2022-10-30T07:04:51.456Z,11.98
2022-10-30T07:07:17.990Z,11.97
2022-10-30T07:09:46.531Z,12.10
2022-10-30T07:12:13.491Z,12.23
2022-10-30T07:14:39.893Z,12.31
2022-10-30T07:17:06.317Z,12.42
2022-10-30T07:19:32.819Z,12.51
2022-10-30T07:22:01.119Z,12.54
2022-10-30T07:24:27.609Z,12.60
2022-10-30T07:26:55.477Z,12.66
2022-10-30T07:29:21.939Z,12.70
2022-10-30T07:32:01.535Z,12.74
2022-10-30T07:34:29.019Z,12.86
2022-10-30T07:36:55.435Z,12.92
2022-10-30T07:39:21.884Z,12.90
2022-10-30T07:41:51.152Z,12.96
2022-10-30T07:44:18.859Z,13.00
2022-10-30T07:46:45.318Z,13.00
2022-10-30T07:49:11.722Z,13.05
2022-10-30T07:51:38.122Z,13.18
2022-10-30T07:54:04.566Z,13.27
2022-10-30T07:56:31.195Z,13.34
2022-10-30T07:58:57.617Z,13.39
2022-10-30T08:01:24.124Z,13.44
2022-10-30T08:03:50.664Z,13.49
2022-10-30T08:06:20.016Z,13.57
2022-10-30T08:08:49.490Z,13.67
2022-10-30T08:11:15.943Z,13.76
2022-10-30T08:13:42.420Z,13.85
2022-10-30T08:16:08.894Z,13.95
2022-10-30T08:18:35.399Z,14.04
2022-10-30T08:21:01.824Z,14.11
2022-10-30T08:23:28.267Z,14.17
2022-10-30T08:25:57.387Z,14.23
2022-10-30T08:28:26.931Z,14.28
2022-10-30T08:30:58.204Z,14.36
2022-10-30T08:33:24.784Z,14.47
2022-10-30T08:35:53.193Z,14.58
2022-10-30T08:38:20.028Z,14.66
2022-10-30T08:40:46.533Z,14.73
2022-10-30T08:43:13.698Z,14.82
2022-10-30T08:45:41.092Z,14.89
2022-10-30T08:48:10.309Z,14.92
2022-10-30T08:50:36.961Z,15.00
2022-10-30T08:53:05.730Z,15.09
2022-10-30T08:55:33.188Z,15.19
2022-10-30T08:58:00.230Z,15.31
2022-10-30T09:00:27.493Z,15.40
2022-10-30T09:02:54.272Z,15.52
2022-10-30T09:05:21.192Z,15.65
2022-10-30T09:07:48.162Z,15.75
2022-10-30T09:10:15.312Z,15.83
2022-10-30T09:12:41.774Z,15.95
2022-10-30T09:15:08.826Z,16.04
2022-10-30T09:17:35.275Z,16.13
2022-10-30T09:20:01.726Z,16.24
2022-10-30T09:22:28.142Z,16.30
2022-10-30T09:24:54.628Z,16.32
2022-10-30T09:27:21.056Z,16.40
2022-10-30T09:29:47.440Z,16.49
2022-10-30T09:32:13.834Z,16.61
2022-10-30T09:34:40.990Z,16.74
2022-10-30T09:37:08.318Z,16.77
2022-10-30T09:39:34.795Z,16.85
2022-10-30T09:42:16.469Z,16.98
2022-10-30T09:45:23.231Z,17.11
2022-10-30T09:48:34.064Z,17.20
2022-10-30T09:51:15.605Z,17.41
2022-10-30T09:54:02.720Z,17.54
2022-10-30T09:56:44.481Z,17.62
2022-10-30T09:59:42.409Z,17.73
2022-10-30T10:02:38.217Z,17.91
2022-10-30T10:05:21.379Z,17.98
2022-10-30T10:07:52.556Z,18.09
2022-10-30T10:10:35.522Z,18.14
2022-10-30T10:13:04.303Z,18.14
2022-10-30T10:15:51.452Z,18.29
2022-10-30T10:18:35.446Z,18.41
2022-10-30T10:21:09.277Z,18.49
2022-10-30T10:23:48.552Z,18.54
2022-10-30T10:26:23.763Z,18.66
2022-10-30T10:28:59.177Z,18.73
2022-10-30T10:32:10.335Z,18.80
2022-10-30T10:34:45.567Z,18.80
2022-10-30T10:37:31.483Z,18.91
2022-10-30T10:40:28.336Z,19.07
2022-10-30T10:43:13.133Z,19.18
2022-10-30T10:46:05.747Z,19.25
2022-10-30T10:48:59.367Z,19.23
2022-10-30T10:51:40.802Z,19.38
2022-10-30T10:54:12.506Z,19.53
2022-10-30T10:56:41.791Z,19.61
2022-10-30T10:59:18.536Z,19.74
2022-10-30T11:02:03.191Z,19.66
2022-10-30T11:04:39.110Z,19.65
2022-10-30T11:07:29.478Z,19.78
2022-10-30T11:09:57.521Z,19.95
2022-10-30T11:12:33.671Z,19.96
2022-10-30T11:15:21.636Z,19.93
2022-10-30T11:17:59.986Z,20.01
2022-10-30T11:20:31.428Z,20.12
2022-10-30T11:22:57.988Z,20.25
2022-10-30T11:25:30.345Z,20.31
2022-10-30T11:28:00.873Z,20.42
2022-10-30T11:30:31.389Z,20.49
2022-10-30T11:32:59.447Z,20.61
2022-10-30T11:35:26.323Z,20.71
2022-10-30T11:38:15.414Z,20.78
2022-10-30T11:40:48.489Z,20.78
2022-10-30T11:43:22.340Z,20.74
2022-10-30T11:46:42.929Z,20.74
2022-10-30T11:49:25.568Z,20.83
2022-10-30T11:51:53.254Z,20.85
2022-10-30T11:54:21.857Z,20.80
2022-10-30T11:57:31.266Z,20.73
2022-10-30T12:00:02.248Z,20.82
2022-10-30T12:02:41.003Z,20.94
2022-10-30T12:06:03.440Z,20.93
2022-10-30T12:08:43.237Z,21.01
2022-10-30T12:11:09.694Z,21.14
2022-10-30T12:13:39.565Z,21.02
2022-10-30T12:16:19.102Z,20.95
2022-10-30T12:18:59.195Z,20.89
2022-10-30T12:21:28.220Z,20.93
2022-10-30T12:24:03.462Z,21.14
2022-10-30T12:26:30.700Z,21.18
2022-10-30T12:30:09.256Z,21.08
2022-10-30T12:33:25.648Z,21.04
2022-10-30T12:35:58.052Z,21.09
2022-10-30T12:38:36.960Z,21.17
2022-10-30T12:41:19.888Z,21.14
2022-10-30T12:43:57.889Z,21.04
2022-10-30T12:46:47.065Z,20.91
2022-10-30T12:49:13.431Z,20.93
2022-10-30T12:51:52.792Z,21.06
2022-10-30T12:54:32.401Z,21.09
2022-10-30T12:57:14.872Z,21.04
2022-10-30T12:59:56.992Z,20.97
2022-10-30T13:03:01.080Z,20.90
2022-10-30T13:05:46.844Z,20.85
2022-10-30T13:08:38.668Z,20.80
2022-10-30T13:11:33.761Z,20.81
2022-10-30T13:14:55.968Z,20.77
2022-10-30T13:17:22.476Z,20.72
2022-10-30T13:19:48.954Z,20.76
2022-10-30T13:22:15.362Z,20.84
2022-10-30T13:25:10.628Z,20.82
2022-10-30T13:27:46.026Z,20.75
2022-10-30T13:30:19.388Z,20.74
2022-10-30T13:32:57.368Z,20.74
2022-10-30T13:35:39.044Z,20.72
2022-10-30T13:38:16.870Z,20.68
2022-10-30T13:40:50.796Z,20.63
2022-10-30T13:43:43.343Z,20.71
2022-10-30T13:47:05.496Z,20.79
2022-10-30T13:49:37.691Z,20.87
2022-10-30T13:52:14.198Z,20.91
2022-10-30T13:54:47.337Z,20.92
2022-10-30T13:57:38.547Z,20.97
2022-10-30T14:00:21.489Z,20.96
2022-10-30T14:03:25.824Z,20.93
2022-10-30T14:06:04.548Z,20.89
2022-10-30T14:08:54.759Z,20.90
2022-10-30T14:11:21.226Z,20.86
2022-10-30T14:13:55.156Z,20.86
2022-10-30T14:17:13.566Z,20.92
2022-10-30T14:20:13.760Z,21.06
2022-10-30T14:22:41.086Z,20.99
2022-10-30T14:25:16.197Z,20.91
2022-10-30T14:27:42.721Z,20.88
2022-10-30T14:30:18.764Z,20.80
2022-10-30T14:32:52.777Z,20.75
2022-10-30T14:35:39.493Z,20.73
2022-10-30T14:38:08.852Z,20.73
2022-10-30T14:40:41.802Z,20.70
2022-10-30T14:47:06.519Z,20.60
2022-10-30T14:49:47.513Z,20.58
2022-10-30T14:52:17.084Z,20.52
2022-10-30T14:55:20.929Z,20.53
2022-10-30T14:58:18.683Z,20.49
2022-10-30T15:00:45.320Z,20.48
2022-10-30T15:03:26.323Z,20.49
2022-10-30T15:05:55.153Z,20.42
2022-10-30T15:08:40.344Z,20.36
2022-10-30T15:11:25.535Z,20.35
2022-10-30T15:13:58.362Z,20.31
2022-10-30T15:16:27.701Z,20.24
2022-10-30T15:19:07.309Z,20.16
2022-10-30T15:21:42.630Z,20.14
2022-10-30T15:24:17.115Z,20.10
2022-10-30T15:26:50.361Z,20.07
2022-10-30T15:29:20.996Z,20.01
2022-10-30T15:32:00.217Z,19.90
2022-10-30T15:34:30.915Z,19.77
2022-10-30T15:36:57.483Z,19.66
2022-10-30T15:39:23.991Z,19.57
2022-10-30T15:41:57.499Z,19.52
2022-10-30T15:44:36.459Z,19.42
2022-10-30T15:47:05.288Z,19.33
2022-10-30T15:49:37.756Z,19.27
2022-10-30T15:52:16.966Z,19.20
2022-10-30T15:54:45.378Z,19.11
2022-10-30T15:57:49.487Z,19.01
2022-10-30T16:00:08.309Z,18.91
2022-10-30T16:02:36.742Z,18.84
2022-10-30T16:05:20.209Z,18.77
2022-10-30T16:07:47.182Z,18.71
2022-10-30T16:10:20.550Z,18.67
2022-10-30T16:12:47.847Z,18.63
2022-10-30T16:15:39.626Z,18.62
2022-10-30T16:18:13.625Z,18.62
2022-10-30T16:20:43.273Z,18.62
2022-10-30T16:23:10.247Z,18.59
2022-10-30T16:25:46.959Z,18.58
2022-10-30T16:28:39.674Z,18.51
2022-10-30T16:31:14.287Z,18.40
2022-10-30T16:33:44.464Z,18.28
2022-10-30T16:36:16.743Z,18.21
2022-10-30T16:38:46.037Z,18.13
2022-10-30T16:41:16.108Z,18.05
2022-10-30T16:44:03.414Z,17.98
2022-10-30T16:46:37.941Z,17.91
2022-10-30T16:49:12.289Z,17.85
2022-10-30T16:51:40.026Z,17.74
2022-10-30T16:54:07.991Z,17.71
2022-10-30T16:56:34.473Z,17.69
2022-10-30T16:59:14.974Z,17.62
2022-10-30T17:01:41.620Z,17.54
2022-10-30T17:06:47.306Z,17.46
2022-10-30T17:09:28.622Z,17.33
2022-10-30T17:12:21.283Z,17.27
2022-10-30T17:14:55.721Z,17.27
2022-10-30T17:17:28.375Z,17.24
2022-10-30T17:20:05.687Z,17.19
2022-10-30T17:22:32.933Z,17.14
2022-10-30T17:25:00.103Z,17.09
2022-10-30T17:27:32.256Z,17.03
2022-10-30T17:29:58.709Z,17.00
2022-10-30T17:32:42.619Z,17.00
2022-10-30T17:35:18.118Z,16.96
2022-10-30T17:37:44.645Z,16.87
2022-10-30T17:40:13.095Z,16.77
2022-10-30T17:42:40.178Z,16.70
2022-10-30T17:45:11.063Z,16.68
2022-10-30T17:47:37.994Z,16.61
2022-10-30T17:50:05.554Z,16.57
2022-10-30T17:52:34.548Z,16.58
2022-10-30T17:55:02.180Z,16.57
2022-10-30T17:57:28.830Z,16.56
2022-10-30T17:59:55.350Z,16.52
2022-10-30T18:02:23.402Z,16.51
2022-10-30T18:04:50.460Z,16.49
2022-10-30T18:07:17.498Z,16.41
2022-10-30T18:09:44.583Z,16.41
2022-10-30T18:12:16.322Z,16.33
2022-10-30T18:14:43.187Z,16.27
2022-10-30T18:17:10.581Z,16.24
2022-10-30T18:19:36.989Z,16.17
2022-10-30T18:22:03.526Z,16.11
2022-10-30T18:24:30.016Z,16.06
2022-10-30T18:26:56.818Z,16.02
2022-10-30T18:29:23.612Z,15.97
2022-10-30T18:31:50.108Z,15.94
2022-10-30T18:34:21.032Z,15.86
2022-10-30T18:36:48.465Z,15.87
2022-10-30T18:39:14.922Z,15.84
2022-10-30T18:41:43.669Z,15.84
2022-10-30T18:44:17.779Z,15.78
2022-10-30T18:46:45.206Z,15.74
2022-10-30T18:49:12.071Z,15.67
2022-10-30T18:51:39.103Z,15.62
2022-10-30T18:54:16.371Z,15.55
2022-10-30T18:56:43.522Z,15.50
2022-10-30T18:59:10.058Z,15.51
2022-10-30T19:01:37.434Z,15.56
2022-10-30T19:04:08.961Z,15.52
2022-10-30T19:06:37.527Z,15.42
2022-10-30T19:09:04.122Z,15.36
2022-10-30T19:11:31.802Z,15.34
2022-10-30T19:13:59.319Z,15.25
2022-10-30T19:16:25.844Z,15.23
2022-10-30T19:18:52.728Z,15.19
2022-10-30T19:21:21.579Z,15.14
2022-10-30T19:23:48.357Z,15.19
2022-10-30T19:26:16.199Z,15.14
2022-10-30T19:28:43.541Z,15.14
2022-10-30T19:31:14.925Z,15.13
2022-10-30T19:33:41.900Z,15.09
2022-10-30T19:36:27.015Z,15.07
2022-10-30T19:38:54.006Z,15.09
2022-10-30T19:41:20.607Z,15.10
2022-10-30T19:43:47.069Z,15.07
2022-10-30T19:46:15.115Z,15.03
2022-10-30T19:48:58.714Z,14.97
2022-10-30T19:51:27.132Z,14.80
2022-10-30T19:53:53.869Z,14.65
2022-10-30T19:56:21.217Z,14.55
2022-10-30T19:58:47.970Z,14.56
2022-10-30T20:01:14.761Z,14.56
2022-10-30T20:03:41.631Z,14.60
2022-10-30T20:06:11.924Z,14.68
2022-10-30T20:08:38.536Z,14.66
2022-10-30T20:11:05.115Z,14.64
2022-10-30T20:13:33.171Z,14.61
2022-10-30T20:16:02.476Z,14.59
2022-10-30T20:18:31.602Z,14.56
2022-10-30T20:21:00.370Z,14.57
2022-10-30T20:23:27.982Z,14.57
2022-10-30T20:25:59.815Z,14.51
2022-10-30T20:28:26.131Z,14.46
2022-10-30T20:30:53.816Z,14.47
2022-10-30T20:33:21.102Z,14.45
2022-10-30T20:35:49.206Z,14.38
2022-10-30T20:38:20.347Z,14.39
2022-10-30T20:40:47.294Z,14.38
2022-10-30T20:43:17.171Z,14.36
2022-10-30T20:45:44.135Z,14.30
2022-10-30T20:48:11.289Z,14.23
2022-10-30T20:50:38.195Z,14.12
2022-10-30T20:53:05.589Z,13.99
2022-10-30T20:55:34.759Z,13.87
2022-10-30T20:58:02.704Z,13.77
2022-10-30T21:00:29.782Z,13.78
2022-10-30T21:02:56.261Z,13.68
2022-10-30T21:05:42.703Z,13.61
2022-10-30T21:08:09.151Z,13.59
2022-10-30T21:10:39.160Z,13.65
2022-10-30T21:13:08.936Z,13.69
2022-10-30T21:15:41.361Z,13.65
2022-10-30T21:18:09.211Z,13.58
2022-10-30T21:20:36.497Z,13.63
2022-10-30T21:23:03.073Z,13.67
2022-10-30T21:25:31.459Z,13.58
2022-10-30T21:27:58.442Z,13.47
2022-10-30T21:30:25.104Z,13.36
2022-10-30T21:32:51.667Z,13.30
2022-10-30T21:35:18.220Z,13.36
2022-10-30T21:37:44.617Z,13.43
2022-10-30T21:40:11.754Z,13.43
2022-10-30T21:42:39.551Z,13.42
2022-10-30T21:45:06.746Z,13.44
2022-10-30T21:47:33.156Z,13.46
2022-10-30T21:49:59.620Z,13.41
2022-10-30T21:52:26.092Z,13.42
2022-10-30T21:54:52.555Z,13.39
2022-10-30T21:57:19.015Z,13.45
2022-10-30T21:59:45.457Z,13.52
2022-10-30T22:02:15.220Z,13.57
2022-10-30T22:04:41.877Z,13.57
2022-10-30T22:07:08.556Z,13.58
2022-10-30T22:09:34.998Z,13.54
2022-10-30T22:12:01.400Z,13.38
2022-10-30T22:14:28.457Z,13.32
2022-10-30T22:16:54.887Z,13.24
2022-10-30T22:19:21.489Z,13.17
2022-10-30T22:21:47.920Z,13.12
2022-10-30T22:24:14.494Z,13.02
2022-10-30T22:26:41.003Z,12.92
2022-10-30T22:29:07.432Z,12.84
2022-10-30T22:31:34.014Z,12.84
2022-10-30T22:34:01.083Z,12.84
2022-10-30T22:36:30.527Z,12.82
2022-10-30T22:39:03.433Z,12.73
2022-10-30T22:41:34.455Z,12.73
2022-10-30T22:44:07.420Z,12.85
2022-10-30T22:46:34.346Z,12.89
2022-10-30T22:49:00.738Z,12.95
2022-10-30T22:51:27.207Z,12.96
2022-10-30T22:53:59.448Z,13.01
2022-10-30T22:56:28.258Z,13.03
2022-10-30T22:58:55.441Z,13.00
2022-10-30T23:01:33.408Z,12.88
2022-10-30T23:04:01.521Z,12.78
2022-10-30T23:06:29.982Z,12.77
2022-10-30T23:08:58.611Z,12.75
2022-10-30T23:11:26.085Z,12.75
2022-10-30T23:13:52.779Z,12.75
2022-10-30T23:16:23.446Z,12.84
2022-10-30T23:18:51.263Z,12.80
2022-10-30T23:21:24.468Z,12.59
2022-10-30T23:23:51.728Z,12.55
2022-10-30T23:26:30.136Z,12.54
2022-10-30T23:28:58.256Z,12.48
2022-10-30T23:31:34.592Z,12.42
2022-10-30T23:34:03.851Z,12.41
2022-10-30T23:36:30.592Z,12.37
2022-10-30T23:38:59.529Z,12.50
2022-10-30T23:41:28.577Z,12.58
2022-10-30T23:44:06.347Z,12.54
2022-10-30T23:46:34.035Z,12.52
2022-10-30T23:49:00.553Z,12.53
2022-10-30T23:51:26.971Z,12.55
2022-10-30T23:53:53.483Z,12.58
2022-10-30T23:56:20.981Z,12.53
2022-10-30T23:58:49.363Z,12.58
